Airport View

Enter AWOS ICAO identifier for current METAR.

ex. KFNL

KSWF 300245Z 04012G20KT 2SM -RA BR OVC010 07/07 A2968

30 Oct 2020 03:59

Other Area AWOS: KMGJ - KPOU - KDXR - KFWN

TAF AMD KSWF 300231Z 3003/3106 04014KT 2SM -RA BR SCT005 OVC010 FM301100 02011G17KT 1SM -SN BR BKN005 OVC009 FM301500 03010KT 2SM -SN BR BKN005 OVC009 FM301800 01008KT P6SM VCSH SCT001 BKN020 FM302000 01007KT P6SM OVC040 FM310100 34004KT P6SM SCT180 AMD NOT SKED